Morongo Valley, California
Current Conditions -  °F | °C
As of 3:53 PM on Sunday 21 Dec 2014 (Local Time) from KPSP Reporting Station
Broken Clouds Broken Clouds  
Wind Chill: 67°   Ceiling: 20000
Heat Index: 67°   Visibility: 10mi
Dew Point: 43°   Wind: 0mph
Humidity: 42%   Direction: NA
Pressure: 30.07"   Gusts: NA
Location:  34.06°N, 116.59°W
Report Text: KPSP 212353Z 00000KT 10SM BKN200 19/06 A3007 RMK AO2 SLP184 T01940061 10206 20167 55000
Loading
Personal Weather Stations






























Interactive Weather Map New forecast layout! Learn more

10-Day Weather Forecast

Advertisements
Track Severe Weather on mobile